Superferry II — SWKV — position and weather

sailwx.info

Track history (hours):
 
Tides and Currents Weather Stations Pressure Air Temp Water Temp Dewpoint Dewpoint Depression Visibility Wind Speed Wind Dir Waves Ship Positions

Superferry II

Last reported at 2017-Oct-22 08:30 UTC. Time now 2017-Oct-22 08:33 UTC.
Position N 37°32' E 025°08'.

Length 122 m; draft 4.7 m.

Type: Passenger vessel. MMSI: 237001000.

Date/timePositionNaut miles runAvg speedWind from/ knotsBaromVisibWave heightAir tempDewpointWater temp
2017-Oct-22 08:30N 37°32' E 025°08'5316.7
2017-Oct-22 05:20N 37°59' E 024°10'619.7
2017-Oct-22 05:00N 38°01' E 024°02'1 0.1
2017-Oct-21 15:24N 38°01' E 024°01'4415.5
2017-Oct-21 12:31N 37°44' E 024°52'420.1
2017-Oct-21 12:19N 37°41' E 024°56'619.7
2017-Oct-21 12:01N 37°37' E 025°02'815.1
2017-Oct-21 11:30N 37°32' E 025°09'611.8
2017-Oct-21 11:00N 37°29' E 025°16'3 6.4
2017-Oct-21 10:30N 37°28' E 025°19'0 0.0
2017-Oct-21 10:00N 37°28' E 025°19'2 3.2
2017-Oct-21 09:31N 37°28' E 025°17'815.1
2017-Oct-21 09:00N 37°32' E 025°09'2 4.9
2017-Oct-21 08:30N 37°33' E 025°06'5216.6
2017-Oct-21 05:21N 37°59' E 024°09'719.1
2017-Oct-21 05:00N 38°01' E 024°01'0 0.0
2017-Oct-20 16:19N 38°01' E 024°01'4815.3
2017-Oct-20 13:10N 37°36' E 024°53'520.0
2017-Oct-20 12:53N 37°31' E 024°56'511.6
2017-Oct-20 12:28N 37°26' E 024°57'714.5
2017-Oct-20 12:01N 37°29' E 025°04'510.2
2017-Oct-20 11:30N 37°32' E 025°09'816.1
2017-Oct-20 11:00N 37°28' E 025°18'1 2.2
2017-Oct-20 10:30N 37°28' E 025°19'11 8.1
2017-Oct-20 09:08N 37°30' E 025°06'219.9
2017-Oct-20 09:00N 37°29' E 025°03'611.4
2017-Oct-20 08:30N 37°26' E 024°57'918.7
2017-Oct-20 08:01N 37°35' E 024°54'4315.6
2017-Oct-20 05:14N 37°59' E 024°09'419.8
2017-Oct-20 05:00N 38°01' E 024°03'2 0.2
2017-Oct-19 16:12N 38°01' E 024°01'416.0
2017-Oct-19 15:57N 38°01' E 024°06'5115.8
2017-Oct-19 12:44N 37°30' E 024°57'412.1
2017-Oct-19 12:26N 37°26' E 024°57'614.5
2017-Oct-19 12:01N 37°29' E 025°03'611.1
2017-Oct-19 11:30N 37°32' E 025°09'815.4
2017-Oct-19 11:00N 37°28' E 025°18'2 3.2
2017-Oct-19 10:31N 37°28' E 025°20'1 2.7
2017-Oct-19 10:01N 37°28' E 025°18'815.8
2017-Oct-19 09:30N 37°32' E 025°09'814.8
2017-Oct-19 08:59N 37°28' E 025°01'3 7.1
2017-Oct-19 08:31N 37°27' E 024°57'1019.5
2017-Oct-19 08:01N 37°36' E 024°53'4215.6
2017-Oct-19 05:17N 37°60' E 024°09'619.6
2017-Oct-19 04:59N 38°01' E 024°02'1 0.0
2017-Oct-18 16:07N 38°01' E 024°01'1 6.9
2017-Oct-18 16:00N 38°01' E 024°02'4915.5
2017-Oct-18 12:51N 37°35' E 024°54'719.9
2017-Oct-18 12:31N 37°29' E 024°57'2 4.8
2017-Oct-18 12:01N 37°27' E 024°60'917.8
2017-Oct-18 11:30N 37°32' E 025°09'4 8.3
2017-Oct-18 11:00N 37°30' E 025°14'510.3
2017-Oct-18 10:30N 37°28' E 025°20'1 2.1
2017-Oct-18 10:00N 37°28' E 025°18'816.6
2017-Oct-18 09:31N 37°32' E 025°09'713.5
2017-Oct-18 09:01N 37°29' E 025°02'5 9.5
2017-Oct-18 08:30N 37°26' E 024°57'1019.4
2017-Oct-18 08:00N 37°35' E 024°53'4315.5
2017-Oct-18 05:15N 37°60' E 024°09'519.9
2017-Oct-18 05:00N 38°01' E 024°03'2 0.1
2017-Oct-17 16:13N 38°01' E 024°01'315.2
2017-Oct-17 16:00N 38°01' E 024°05'4015.3
2017-Oct-17 13:21N 37°41' E 024°50'1020.0
2017-Oct-17 12:53N 37°33' E 024°55'718.5
2017-Oct-17 12:31N 37°26' E 024°57'611.5
2017-Oct-17 12:00N 37°29' E 025°03'611.7
2017-Oct-17 11:30N 37°32' E 025°09'510.6
2017-Oct-17 11:00N 37°29' E 025°15'4 8.1
2017-Oct-17 10:30N 37°28' E 025°20'3 6.5
2017-Oct-17 10:00N 37°29' E 025°16'612.3
2017-Oct-17 09:31N 37°32' E 025°09'815.1
2017-Oct-17 08:57N 37°28' E 025°01'3 6.7
2017-Oct-17 08:30N 37°27' E 024°57'1019.4
2017-Oct-17 07:59N 37°36' E 024°53'4215.4
2017-Oct-17 05:15N 37°59' E 024°09'519.6
2017-Oct-17 05:00N 38°01' E 024°03'2 0.1
2017-Oct-16 16:08N 38°01' E 024°01'1 9.6
2017-Oct-16 16:00N 38°01' E 024°02'4715.2
2017-Oct-16 12:57N 37°37' E 024°53'919.5
2017-Oct-16 12:30N 37°29' E 024°57'3 5.6
2017-Oct-16 12:01N 37°27' E 024°59'1019.5
2017-Oct-16 11:31N 37°32' E 025°09'2 3.9
2017-Oct-16 11:00N 37°31' E 025°11'714.9
2017-Oct-16 10:30N 37°28' E 025°20'1 1.2
2017-Oct-16 10:00N 37°28' E 025°19'917.2
2017-Oct-16 09:30N 37°32' E 025°09'611.7
2017-Oct-16 09:01N 37°29' E 025°03'611.7
2017-Oct-16 08:30N 37°26' E 024°57'816.2
2017-Oct-16 07:59N 37°35' E 024°54'4315.8
2017-Oct-16 05:14N 37°60' E 024°09'520.0
2017-Oct-16 05:00N 38°01' E 024°03'2 0.2
2017-Oct-15 16:05N 38°01' E 024°01'215.9
2017-Oct-15 15:59N 38°01' E 024°03'4113.3
2017-Oct-15 12:53N 37°45' E 024°51'819.5
2017-Oct-15 12:27N 37°39' E 024°58'818.8
2017-Oct-15 12:01N 37°33' E 025°06'3 5.7
2017-Oct-15 11:30N 37°32' E 025°09'611.2
2017-Oct-15 11:01N 37°29' E 025°15'4 7.2
2017-Oct-15 10:30N 37°28' E 025°19'0 0.0
2017-Oct-15 10:00N 37°28' E 025°19'0 0.0
2017-Oct-15 09:30N 37°28' E 025°19'510.4
2017-Oct-15 09:00N 37°29' E 025°13'4 8.2
2017-Oct-15 08:30N 37°32' E 025°09'5617.1
2017-Oct-15 05:14N 37°60' E 024°08'419.6
2017-Oct-15 05:00N 38°01' E 024°02'1 0.1
2017-Oct-14 15:25N 38°01' E 024°01'4315.3
2017-Oct-14 12:37N 37°45' E 024°51'920.0
2017-Oct-14 12:09N 37°38' E 024°59'319.4
2017-Oct-14 12:00N 37°36' E 025°02'714.7
2017-Oct-14 11:30N 37°32' E 025°09'510.8
2017-Oct-14 11:00N 37°29' E 025°15'4 7.8
2017-Oct-14 10:30N 37°28' E 025°20'0 0.0
2017-Oct-14 10:00N 37°28' E 025°20'0 0.0
2017-Oct-14 09:30N 37°28' E 025°20'816.3
2017-Oct-14 09:00N 37°31' E 025°10'2 3.4
2017-Oct-14 08:30N 37°32' E 025°08'5617.0
2017-Oct-14 05:13N 37°60' E 024°07'419.6
2017-Oct-14 05:00N 38°01' E 024°02'1 0.1
2017-Oct-13 16:20N 38°01' E 024°01'5115.3
2017-Oct-13 13:00N 37°33' E 024°55'714.7
2017-Oct-13 12:30N 37°26' E 024°57'713.9
2017-Oct-13 12:00N 37°30' E 025°04'5 9.7
2017-Oct-13 11:30N 37°32' E 025°09'815.7
2017-Oct-13 11:00N 37°28' E 025°18'1 2.9
2017-Oct-13 10:30N 37°28' E 025°20'510.3
2017-Oct-13 10:00N 37°29' E 025°13'4 8.5
2017-Oct-13 09:31N 37°32' E 025°09'918.6
2017-Oct-13 09:00N 37°27' E 024°59'2 3.8
2017-Oct-13 08:31N 37°28' E 024°57'1020.0
2017-Oct-13 08:01N 37°37' E 024°52'4115.6
2017-Oct-13 05:22N 37°60' E 024°08'6 0.5
2017-Oct-12 16:29N 38°01' E 024°01'4714.9
2017-Oct-12 13:22N 37°38' E 024°52'719.7
2017-Oct-12 13:00N 37°32' E 024°56'611.4
2017-Oct-12 12:30N 37°26' E 024°57'816.8
2017-Oct-12 12:01N 37°31' E 025°06'3 6.8
2017-Oct-12 11:30N 37°32' E 025°09'713.3
2017-Oct-12 11:00N 37°29' E 025°16'3 5.3
2017-Oct-12 10:31N 37°28' E 025°20'2 4.7
2017-Oct-12 10:00N 37°29' E 025°17'713.9
2017-Oct-12 09:30N 37°32' E 025°09'613.0
2017-Oct-12 09:00N 37°29' E 025°03'  
Track history (hours):
 
Tides and Currents Weather Stations Pressure Air Temp Water Temp Dewpoint Dewpoint Depression Visibility Wind Speed Wind Dir Waves Ship Positions

Superferry II

Last reported at 2017-Oct-22 08:30 UTC. Time now 2017-Oct-22 08:33 UTC.
Position N 37°32' E 025°08'.

Length 122 m; draft 4.7 m.

Type: Passenger vessel. MMSI: 237001000.

Date/timePositionNaut miles runAvg speedWind from/ knotsBaromVisibWave heightAir tempDewpointWater temp
2017-Oct-22 08:30N 37°32' E 025°08'5316.7
2017-Oct-22 05:20N 37°59' E 024°10'619.7
2017-Oct-22 05:00N 38°01' E 024°02'1 0.1
2017-Oct-21 15:24N 38°01' E 024°01'4415.5
2017-Oct-21 12:31N 37°44' E 024°52'420.1
2017-Oct-21 12:19N 37°41' E 024°56'619.7
2017-Oct-21 12:01N 37°37' E 025°02'815.1
2017-Oct-21 11:30N 37°32' E 025°09'611.8
2017-Oct-21 11:00N 37°29' E 025°16'3 6.4
2017-Oct-21 10:30N 37°28' E 025°19'0 0.0
2017-Oct-21 10:00N 37°28' E 025°19'2 3.2
2017-Oct-21 09:31N 37°28' E 025°17'815.1
2017-Oct-21 09:00N 37°32' E 025°09'2 4.9
2017-Oct-21 08:30N 37°33' E 025°06'5216.6
2017-Oct-21 05:21N 37°59' E 024°09'719.1
2017-Oct-21 05:00N 38°01' E 024°01'0 0.0
2017-Oct-20 16:19N 38°01' E 024°01'4815.3
2017-Oct-20 13:10N 37°36' E 024°53'520.0
2017-Oct-20 12:53N 37°31' E 024°56'511.6
2017-Oct-20 12:28N 37°26' E 024°57'714.5
2017-Oct-20 12:01N 37°29' E 025°04'510.2
2017-Oct-20 11:30N 37°32' E 025°09'816.1
2017-Oct-20 11:00N 37°28' E 025°18'1 2.2
2017-Oct-20 10:30N 37°28' E 025°19'11 8.1
2017-Oct-20 09:08N 37°30' E 025°06'219.9
2017-Oct-20 09:00N 37°29' E 025°03'611.4
2017-Oct-20 08:30N 37°26' E 024°57'918.7
2017-Oct-20 08:01N 37°35' E 024°54'4315.6
2017-Oct-20 05:14N 37°59' E 024°09'419.8
2017-Oct-20 05:00N 38°01' E 024°03'2 0.2
2017-Oct-19 16:12N 38°01' E 024°01'416.0
2017-Oct-19 15:57N 38°01' E 024°06'5115.8
2017-Oct-19 12:44N 37°30' E 024°57'412.1
2017-Oct-19 12:26N 37°26' E 024°57'614.5
2017-Oct-19 12:01N 37°29' E 025°03'611.1
2017-Oct-19 11:30N 37°32' E 025°09'815.4
2017-Oct-19 11:00N 37°28' E 025°18'2 3.2
2017-Oct-19 10:31N 37°28' E 025°20'1 2.7
2017-Oct-19 10:01N 37°28' E 025°18'815.8
2017-Oct-19 09:30N 37°32' E 025°09'814.8
2017-Oct-19 08:59N 37°28' E 025°01'3 7.1
2017-Oct-19 08:31N 37°27' E 024°57'1019.5
2017-Oct-19 08:01N 37°36' E 024°53'4215.6
2017-Oct-19 05:17N 37°60' E 024°09'619.6
2017-Oct-19 04:59N 38°01' E 024°02'1 0.0
2017-Oct-18 16:07N 38°01' E 024°01'1 6.9
2017-Oct-18 16:00N 38°01' E 024°02'4915.5
2017-Oct-18 12:51N 37°35' E 024°54'719.9
2017-Oct-18 12:31N 37°29' E 024°57'2 4.8
2017-Oct-18 12:01N 37°27' E 024°60'917.8
2017-Oct-18 11:30N 37°32' E 025°09'4 8.3
2017-Oct-18 11:00N 37°30' E 025°14'510.3
2017-Oct-18 10:30N 37°28' E 025°20'1 2.1
2017-Oct-18 10:00N 37°28' E 025°18'816.6
2017-Oct-18 09:31N 37°32' E 025°09'713.5
2017-Oct-18 09:01N 37°29' E 025°02'5 9.5
2017-Oct-18 08:30N 37°26' E 024°57'1019.4
2017-Oct-18 08:00N 37°35' E 024°53'4315.5
2017-Oct-18 05:15N 37°60' E 024°09'519.9
2017-Oct-18 05:00N 38°01' E 024°03'2 0.1
2017-Oct-17 16:13N 38°01' E 024°01'315.2
2017-Oct-17 16:00N 38°01' E 024°05'4015.3
2017-Oct-17 13:21N 37°41' E 024°50'1020.0
2017-Oct-17 12:53N 37°33' E 024°55'718.5
2017-Oct-17 12:31N 37°26' E 024°57'611.5
2017-Oct-17 12:00N 37°29' E 025°03'611.7
2017-Oct-17 11:30N 37°32' E 025°09'510.6
2017-Oct-17 11:00N 37°29' E 025°15'4 8.1
2017-Oct-17 10:30N 37°28' E 025°20'3 6.5
2017-Oct-17 10:00N 37°29' E 025°16'612.3
2017-Oct-17 09:31N 37°32' E 025°09'815.1
2017-Oct-17 08:57N 37°28' E 025°01'3 6.7
2017-Oct-17 08:30N 37°27' E 024°57'1019.4
2017-Oct-17 07:59N 37°36' E 024°53'4215.4
2017-Oct-17 05:15N 37°59' E 024°09'519.6
2017-Oct-17 05:00N 38°01' E 024°03'2 0.1
2017-Oct-16 16:08N 38°01' E 024°01'1 9.6
2017-Oct-16 16:00N 38°01' E 024°02'4715.2
2017-Oct-16 12:57N 37°37' E 024°53'919.5
2017-Oct-16 12:30N 37°29' E 024°57'3 5.6
2017-Oct-16 12:01N 37°27' E 024°59'1019.5
2017-Oct-16 11:31N 37°32' E 025°09'2 3.9
2017-Oct-16 11:00N 37°31' E 025°11'714.9
2017-Oct-16 10:30N 37°28' E 025°20'1 1.2
2017-Oct-16 10:00N 37°28' E 025°19'917.2
2017-Oct-16 09:30N 37°32' E 025°09'611.7
2017-Oct-16 09:01N 37°29' E 025°03'611.7
2017-Oct-16 08:30N 37°26' E 024°57'816.2
2017-Oct-16 07:59N 37°35' E 024°54'4315.8
2017-Oct-16 05:14N 37°60' E 024°09'520.0
2017-Oct-16 05:00N 38°01' E 024°03'2 0.2
2017-Oct-15 16:05N 38°01' E 024°01'215.9
2017-Oct-15 15:59N 38°01' E 024°03'4113.3
2017-Oct-15 12:53N 37°45' E 024°51'819.5
2017-Oct-15 12:27N 37°39' E 024°58'818.8
2017-Oct-15 12:01N 37°33' E 025°06'3 5.7
2017-Oct-15 11:30N 37°32' E 025°09'611.2
2017-Oct-15 11:01N 37°29' E 025°15'4 7.2
2017-Oct-15 10:30N 37°28' E 025°19'0 0.0
2017-Oct-15 10:00N 37°28' E 025°19'0 0.0
2017-Oct-15 09:30N 37°28' E 025°19'510.4
2017-Oct-15 09:00N 37°29' E 025°13'4 8.2
2017-Oct-15 08:30N 37°32' E 025°09'5617.1
2017-Oct-15 05:14N 37°60' E 024°08'419.6
2017-Oct-15 05:00N 38°01' E 024°02'1 0.1
2017-Oct-14 15:25N 38°01' E 024°01'4315.3
2017-Oct-14 12:37N 37°45' E 024°51'920.0
2017-Oct-14 12:09N 37°38' E 024°59'319.4
2017-Oct-14 12:00N 37°36' E 025°02'714.7
2017-Oct-14 11:30N 37°32' E 025°09'510.8
2017-Oct-14 11:00N 37°29' E 025°15'4 7.8
2017-Oct-14 10:30N 37°28' E 025°20'0 0.0
2017-Oct-14 10:00N 37°28' E 025°20'0 0.0
2017-Oct-14 09:30N 37°28' E 025°20'816.3
2017-Oct-14 09:00N 37°31' E 025°10'2 3.4
2017-Oct-14 08:30N 37°32' E 025°08'5617.0
2017-Oct-14 05:13N 37°60' E 024°07'419.6
2017-Oct-14 05:00N 38°01' E 024°02'1 0.1
2017-Oct-13 16:20N 38°01' E 024°01'5115.3
2017-Oct-13 13:00N 37°33' E 024°55'714.7
2017-Oct-13 12:30N 37°26' E 024°57'713.9
2017-Oct-13 12:00N 37°30' E 025°04'5 9.7
2017-Oct-13 11:30N 37°32' E 025°09'815.7
2017-Oct-13 11:00N 37°28' E 025°18'1 2.9
2017-Oct-13 10:30N 37°28' E 025°20'510.3
2017-Oct-13 10:00N 37°29' E 025°13'4 8.5
2017-Oct-13 09:31N 37°32' E 025°09'918.6
2017-Oct-13 09:00N 37°27' E 024°59'2 3.8
2017-Oct-13 08:31N 37°28' E 024°57'1020.0
2017-Oct-13 08:01N 37°37' E 024°52'4115.6
2017-Oct-13 05:22N 37°60' E 024°08'6 0.5
2017-Oct-12 16:29N 38°01' E 024°01'4714.9
2017-Oct-12 13:22N 37°38' E 024°52'719.7
2017-Oct-12 13:00N 37°32' E 024°56'611.4
2017-Oct-12 12:30N 37°26' E 024°57'816.8
2017-Oct-12 12:01N 37°31' E 025°06'3 6.8
2017-Oct-12 11:30N 37°32' E 025°09'713.3
2017-Oct-12 11:00N 37°29' E 025°16'3 5.3
2017-Oct-12 10:31N 37°28' E 025°20'2 4.7
2017-Oct-12 10:00N 37°29' E 025°17'713.9
2017-Oct-12 09:30N 37°32' E 025°09'613.0
2017-Oct-12 09:00N 37°29' E 025°03'  

Dump ship's entire track history